createdAt,value
2018-07-10T00:00:24.348Z,0.00
2018-07-10T00:01:24.312Z,0.00
2018-07-10T00:02:24.257Z,0.00
2018-07-10T00:03:24.229Z,0.00
2018-07-10T00:04:24.156Z,0.00
2018-07-10T00:05:24.109Z,0.00
2018-07-10T00:06:24.061Z,0.00
2018-07-10T00:07:24.013Z,0.00
2018-07-10T00:08:23.989Z,0.00
2018-07-10T00:09:23.918Z,0.00
2018-07-10T00:10:23.869Z,0.00
2018-07-10T00:11:23.830Z,0.00
2018-07-10T00:12:23.838Z,0.00
2018-07-10T00:13:23.764Z,0.00
2018-07-10T00:14:23.678Z,0.00
2018-07-10T00:15:23.668Z,0.00
2018-07-10T00:16:23.582Z,0.00
2018-07-10T00:17:23.531Z,0.00
2018-07-10T00:18:23.486Z,0.00
2018-07-10T00:19:23.461Z,0.00
2018-07-10T00:20:23.392Z,0.00
2018-07-10T00:21:23.344Z,0.00
2018-07-10T00:22:23.293Z,0.00
2018-07-10T00:23:23.244Z,0.00
2018-07-10T00:24:23.220Z,0.00
2018-07-10T00:25:23.149Z,0.00
2018-07-10T00:26:23.101Z,0.00
2018-07-10T00:27:23.100Z,0.00
2018-07-10T00:28:23.004Z,0.00
2018-07-10T00:29:22.983Z,0.00
2018-07-10T00:30:22.916Z,0.00
2018-07-10T00:31:22.865Z,0.00
2018-07-10T00:32:22.827Z,0.00
2018-07-10T00:33:22.767Z,0.00
2018-07-10T00:34:22.742Z,0.00
2018-07-10T00:35:22.672Z,0.00
2018-07-10T00:36:22.631Z,0.00
2018-07-10T00:37:22.577Z,0.00
2018-07-10T00:38:22.528Z,0.00
2018-07-10T00:39:22.504Z,0.00
2018-07-10T00:40:22.431Z,0.00
2018-07-10T00:41:22.382Z,0.00
2018-07-10T00:42:22.335Z,0.00
2018-07-10T00:43:22.292Z,0.00
2018-07-10T00:44:22.270Z,0.00
2018-07-10T00:45:22.190Z,0.00
2018-07-10T00:46:22.150Z,0.00
2018-07-10T00:47:22.099Z,0.00
2018-07-10T00:48:22.051Z,0.00
2018-07-10T00:49:22.037Z,0.00
2018-07-10T00:50:21.956Z,0.00
2018-07-10T00:51:21.904Z,0.00
2018-07-10T00:52:21.859Z,0.00
2018-07-10T00:53:21.808Z,0.00
2018-07-10T00:54:21.785Z,0.00
2018-07-10T00:55:21.717Z,0.00
2018-07-10T00:56:21.668Z,0.00
2018-07-10T00:57:21.618Z,0.00
2018-07-10T00:58:21.574Z,0.00
2018-07-10T00:59:21.543Z,0.00
2018-07-10T01:00:21.473Z,0.00
2018-07-10T01:01:21.429Z,0.00
2018-07-10T01:02:21.384Z,0.00
2018-07-10T01:03:21.328Z,0.00
2018-07-10T01:04:21.307Z,0.00
2018-07-10T01:05:21.238Z,0.00
2018-07-10T01:06:21.188Z,0.00
2018-07-10T01:07:21.140Z,0.00
2018-07-10T01:08:21.096Z,0.00
2018-07-10T01:09:21.066Z,0.00
2018-07-10T01:10:20.993Z,0.00
2018-07-10T01:11:20.952Z,0.00
2018-07-10T01:12:20.902Z,0.00
2018-07-10T01:13:20.853Z,0.00
2018-07-10T01:14:20.825Z,0.00
2018-07-10T01:15:20.754Z,0.00
2018-07-10T01:16:20.710Z,0.00
2018-07-10T01:17:20.657Z,0.00
2018-07-10T01:18:20.610Z,0.00
2018-07-10T01:19:20.598Z,0.00
2018-07-10T01:20:20.517Z,0.00
2018-07-10T01:21:20.463Z,0.00
2018-07-10T01:22:20.418Z,0.00
2018-07-10T01:23:20.368Z,0.00
2018-07-10T01:24:20.322Z,0.00
2018-07-10T01:25:20.300Z,0.00
2018-07-10T01:26:20.223Z,0.00
2018-07-10T01:27:20.188Z,0.00
2018-07-10T01:28:20.128Z,0.00
2018-07-10T01:29:20.075Z,0.00
2018-07-10T01:30:20.051Z,0.00
2018-07-10T01:31:19.979Z,0.00
2018-07-10T01:32:19.935Z,0.00
2018-07-10T01:33:19.885Z,0.00
2018-07-10T01:34:19.834Z,0.00
2018-07-10T01:35:19.809Z,0.00
2018-07-10T01:36:19.740Z,0.00
2018-07-10T01:37:19.690Z,0.00
2018-07-10T01:38:19.642Z,0.00
2018-07-10T01:39:19.596Z,0.00
2018-07-10T01:40:19.568Z,0.00
2018-07-10T01:41:19.499Z,0.00
2018-07-10T01:42:19.444Z,0.00
2018-07-10T01:43:19.398Z,0.00
2018-07-10T01:44:19.347Z,0.00
2018-07-10T01:45:19.328Z,0.00
2018-07-10T01:46:19.252Z,0.00
2018-07-10T01:47:19.199Z,0.00
2018-07-10T01:48:19.153Z,0.00
2018-07-10T01:49:19.109Z,0.00
2018-07-10T01:50:19.083Z,0.00
2018-07-10T01:51:19.011Z,0.00
2018-07-10T01:52:18.956Z,0.00
2018-07-10T01:53:18.909Z,0.00
2018-07-10T01:54:18.862Z,0.00
2018-07-10T01:55:18.836Z,0.00
2018-07-10T01:56:18.767Z,0.00
2018-07-10T01:57:18.715Z,0.00
2018-07-10T01:58:18.667Z,0.00
2018-07-10T01:59:18.618Z,0.00
2018-07-10T02:00:18.595Z,0.00
2018-07-10T02:01:18.524Z,0.00
2018-07-10T02:02:18.478Z,0.00
2018-07-10T02:03:18.425Z,0.00
2018-07-10T02:04:18.377Z,0.00
2018-07-10T02:05:18.351Z,0.00
2018-07-10T02:06:18.283Z,0.00
2018-07-10T02:07:18.235Z,0.00
2018-07-10T02:08:18.183Z,0.00
2018-07-10T02:09:18.142Z,0.00
2018-07-10T02:10:18.113Z,0.00
2018-07-10T02:11:18.040Z,0.00
2018-07-10T02:12:17.999Z,0.00
2018-07-10T02:13:17.944Z,0.00
2018-07-10T02:14:17.895Z,0.00
2018-07-10T02:15:17.842Z,0.00
2018-07-10T02:16:17.824Z,0.00
2018-07-10T02:17:17.747Z,0.00
2018-07-10T02:18:17.703Z,0.00
2018-07-10T02:19:17.650Z,0.00
2018-07-10T02:20:17.602Z,0.00
2018-07-10T02:21:17.577Z,0.00
2018-07-10T02:22:17.506Z,0.00
2018-07-10T02:23:17.455Z,0.00
2018-07-10T02:24:17.418Z,0.00
2018-07-10T02:25:17.359Z,0.00
2018-07-10T02:26:17.338Z,0.00
2018-07-10T02:27:17.266Z,0.00
2018-07-10T02:28:17.213Z,0.00
2018-07-10T02:29:17.165Z,0.00
2018-07-10T02:30:17.129Z,0.00
2018-07-10T02:31:17.097Z,0.00
2018-07-10T02:32:17.021Z,0.00
2018-07-10T02:33:16.970Z,0.00
2018-07-10T02:34:16.925Z,0.00
2018-07-10T02:35:16.881Z,0.00
2018-07-10T02:36:16.851Z,0.00
2018-07-10T02:37:16.778Z,0.00
2018-07-10T02:38:16.730Z,0.00
2018-07-10T02:39:16.681Z,0.00
2018-07-10T02:40:16.633Z,0.00
2018-07-10T02:41:16.614Z,0.00
2018-07-10T02:42:16.540Z,0.00
2018-07-10T02:43:16.489Z,0.00
2018-07-10T02:44:16.440Z,0.00
2018-07-10T02:45:16.390Z,0.00
2018-07-10T02:46:16.344Z,0.00
2018-07-10T02:47:16.318Z,0.00
2018-07-10T02:48:16.249Z,4.00
2018-07-10T02:49:16.200Z,4.00
2018-07-10T02:50:16.151Z,4.00
2018-07-10T02:51:16.103Z,4.00
2018-07-10T02:52:16.079Z,0.00
2018-07-10T02:53:16.008Z,4.00
2018-07-10T02:54:15.968Z,4.00
2018-07-10T02:55:15.905Z,4.00
2018-07-10T02:56:15.860Z,4.00
2018-07-10T02:57:15.835Z,4.00
2018-07-10T02:58:15.767Z,8.00
2018-07-10T02:59:15.727Z,8.00
2018-07-10T03:00:15.730Z,8.00
2018-07-10T03:01:15.616Z,12.00
2018-07-10T03:02:15.593Z,12.00
2018-07-10T03:03:15.520Z,12.00
2018-07-10T03:04:15.476Z,12.00
2018-07-10T03:05:15.421Z,16.00
2018-07-10T03:06:15.381Z,16.00
2018-07-10T03:07:15.352Z,16.00
2018-07-10T03:08:15.282Z,20.00
2018-07-10T03:09:15.232Z,16.00
2018-07-10T03:10:15.181Z,24.00
2018-07-10T03:11:15.133Z,28.00
2018-07-10T03:12:15.110Z,32.00
2018-07-10T03:13:15.035Z,32.00
2018-07-10T03:14:14.985Z,36.00
2018-07-10T03:15:14.938Z,40.00
2018-07-10T03:16:14.893Z,48.00
2018-07-10T03:17:14.869Z,48.00
2018-07-10T03:18:14.796Z,52.00
2018-07-10T03:19:14.747Z,60.00
2018-07-10T03:20:14.697Z,72.00
2018-07-10T03:21:14.645Z,72.00
2018-07-10T03:22:14.625Z,84.00
2018-07-10T03:23:14.554Z,92.00
2018-07-10T03:24:14.510Z,96.00
2018-07-10T03:25:14.456Z,92.00
2018-07-10T03:26:14.408Z,100.00
2018-07-10T03:27:14.402Z,108.00
2018-07-10T03:28:14.313Z,120.00
2018-07-10T03:29:14.261Z,128.00
2018-07-10T03:30:14.224Z,140.00
2018-07-10T03:31:14.165Z,148.00
2018-07-10T03:32:14.119Z,156.00
2018-07-10T03:33:14.087Z,156.00
2018-07-10T03:34:14.027Z,160.00
2018-07-10T03:35:13.972Z,172.00
2018-07-10T03:36:13.925Z,184.00
2018-07-10T03:37:13.875Z,196.00
2018-07-10T03:38:13.849Z,200.00
2018-07-10T03:39:13.776Z,208.00
2018-07-10T03:40:13.726Z,208.00
2018-07-10T03:41:13.682Z,220.00
2018-07-10T03:42:13.636Z,232.00
2018-07-10T03:43:13.616Z,248.00
2018-07-10T03:44:13.534Z,264.00
2018-07-10T03:45:13.485Z,276.00
2018-07-10T03:46:13.444Z,284.00
2018-07-10T03:47:13.392Z,280.00
2018-07-10T03:48:13.368Z,284.00
2018-07-10T03:49:13.295Z,300.00
2018-07-10T03:50:13.246Z,296.00
2018-07-10T03:51:13.194Z,308.00
2018-07-10T03:52:13.148Z,308.00
2018-07-10T03:53:13.124Z,328.00
2018-07-10T03:54:13.052Z,344.00
2018-07-10T03:55:13.007Z,356.00
2018-07-10T03:56:12.957Z,360.00
2018-07-10T03:57:12.909Z,348.00
2018-07-10T03:58:12.881Z,364.00
2018-07-10T03:59:12.820Z,368.00
2018-07-10T04:00:12.763Z,364.00
2018-07-10T04:01:12.716Z,372.00
2018-07-10T04:02:12.680Z,372.00
2018-07-10T04:03:12.652Z,400.00
2018-07-10T04:04:12.566Z,420.00
2018-07-10T04:05:12.520Z,468.00
2018-07-10T04:06:12.472Z,516.00
2018-07-10T04:07:12.420Z,548.00
2018-07-10T04:08:12.373Z,556.00
2018-07-10T04:09:12.407Z,488.00
2018-07-10T04:10:12.275Z,428.00
2018-07-10T04:11:12.264Z,372.00
2018-07-10T04:12:12.189Z,364.00
2018-07-10T04:13:12.130Z,348.00
2018-07-10T04:14:12.104Z,300.00
2018-07-10T04:15:12.038Z,312.00
2018-07-10T04:16:11.986Z,376.00
2018-07-10T04:17:11.936Z,396.00
2018-07-10T04:18:11.888Z,424.00
2018-07-10T04:19:11.859Z,468.00
2018-07-10T04:20:11.788Z,476.00
2018-07-10T04:21:11.741Z,448.00
2018-07-10T04:22:11.697Z,436.00
2018-07-10T04:23:11.643Z,432.00
2018-07-10T04:24:11.625Z,444.00
2018-07-10T04:25:11.557Z,460.00
2018-07-10T04:26:11.498Z,452.00
2018-07-10T04:27:11.450Z,484.00
2018-07-10T04:28:11.401Z,560.00
2018-07-10T04:29:11.375Z,576.00
2018-07-10T04:30:11.305Z,492.00
2018-07-10T04:31:11.257Z,472.00
2018-07-10T04:32:11.228Z,508.00
2018-07-10T04:33:11.160Z,560.00
2018-07-10T04:34:11.137Z,540.00
2018-07-10T04:35:11.068Z,528.00
2018-07-10T04:36:11.016Z,580.00
2018-07-10T04:37:10.966Z,572.00
2018-07-10T04:38:10.922Z,620.00
2018-07-10T04:39:10.899Z,628.00
2018-07-10T04:40:10.823Z,560.00
2018-07-10T04:41:10.780Z,528.00
2018-07-10T04:42:10.728Z,516.00
2018-07-10T04:43:10.679Z,560.00
2018-07-10T04:44:10.651Z,660.00
2018-07-10T04:45:10.589Z,732.00
2018-07-10T04:46:10.533Z,764.00
2018-07-10T04:47:10.492Z,716.00
2018-07-10T04:48:10.442Z,632.00
2018-07-10T04:49:10.458Z,624.00
2018-07-10T04:50:10.382Z,620.00
2018-07-10T04:51:10.296Z,624.00
2018-07-10T04:52:10.237Z,628.00
2018-07-10T04:53:10.190Z,648.00
2018-07-10T04:54:10.146Z,632.00
2018-07-10T04:55:10.122Z,636.00
2018-07-10T04:56:10.048Z,648.00
2018-07-10T04:57:09.999Z,656.00
2018-07-10T04:58:09.950Z,720.00
2018-07-10T04:59:09.902Z,816.00
2018-07-10T05:00:09.877Z,856.00
2018-07-10T05:01:09.811Z,928.00
2018-07-10T05:02:09.756Z,1008.00
2018-07-10T05:03:09.716Z,1044.00
2018-07-10T05:04:09.663Z,972.00
2018-07-10T05:05:09.638Z,880.00
2018-07-10T05:06:09.565Z,852.00
2018-07-10T05:07:09.516Z,812.00
2018-07-10T05:08:09.468Z,772.00
2018-07-10T05:09:09.419Z,736.00
2018-07-10T05:10:09.396Z,696.00
2018-07-10T05:11:09.324Z,660.00
2018-07-10T05:12:09.295Z,648.00
2018-07-10T05:13:09.226Z,636.00
2018-07-10T05:14:09.180Z,664.00
2018-07-10T05:15:09.168Z,696.00
2018-07-10T05:16:09.093Z,692.00
2018-07-10T05:17:09.037Z,676.00
2018-07-10T05:18:08.984Z,668.00
2018-07-10T05:19:08.939Z,688.00
2018-07-10T05:20:08.900Z,712.00
2018-07-10T05:21:08.867Z,736.00
2018-07-10T05:22:08.792Z,732.00
2018-07-10T05:23:09.238Z,744.00
2018-07-10T05:24:08.711Z,784.00
2018-07-10T05:25:08.649Z,796.00
2018-07-10T05:26:08.625Z,724.00
2018-07-10T05:27:08.552Z,808.00
2018-07-10T05:28:08.514Z,756.00
2018-07-10T05:29:08.503Z,644.00
2018-07-10T05:30:08.409Z,656.00
2018-07-10T05:31:08.386Z,684.00
2018-07-10T05:32:08.414Z,668.00
2018-07-10T05:33:08.259Z,728.00
2018-07-10T05:34:08.219Z,708.00
2018-07-10T05:35:08.172Z,632.00
2018-07-10T05:36:08.140Z,752.00
2018-07-10T05:37:08.108Z,760.00
2018-07-10T05:38:08.023Z,708.00
2018-07-10T05:39:07.973Z,616.00
2018-07-10T05:40:07.929Z,644.00
2018-07-10T05:41:07.897Z,712.00
2018-07-10T05:42:07.825Z,708.00
2018-07-10T05:43:07.779Z,600.00
2018-07-10T05:44:07.741Z,672.00
2018-07-10T05:45:07.687Z,688.00
2018-07-10T05:46:07.657Z,740.00
2018-07-10T05:47:07.596Z,584.00
2018-07-10T05:48:07.539Z,476.00
2018-07-10T05:49:07.493Z,460.00
2018-07-10T05:50:07.439Z,476.00
2018-07-10T05:51:07.415Z,428.00
2018-07-10T05:52:07.412Z,528.00
2018-07-10T05:53:07.294Z,488.00
2018-07-10T05:54:07.250Z,772.00
2018-07-10T05:55:07.197Z,924.00
2018-07-10T05:56:07.173Z,964.00
2018-07-10T05:57:07.106Z,1396.00
2018-07-10T05:58:07.057Z,1744.00
2018-07-10T05:59:07.000Z,1968.00
2018-07-10T06:00:06.963Z,2100.00
2018-07-10T06:01:06.936Z,2412.00
2018-07-10T06:02:06.859Z,2400.00
2018-07-10T06:03:06.806Z,2188.00
2018-07-10T06:04:06.758Z,2220.00
2018-07-10T06:05:06.711Z,3128.00
2018-07-10T06:06:06.687Z,3176.00
2018-07-10T06:07:06.612Z,2872.00
2018-07-10T06:08:06.564Z,2424.00
2018-07-10T06:09:06.521Z,2516.00
2018-07-10T06:10:06.468Z,2064.00
2018-07-10T06:11:06.444Z,1640.00
2018-07-10T06:12:06.381Z,1344.00
2018-07-10T06:13:06.331Z,936.00
2018-07-10T06:14:06.304Z,788.00
2018-07-10T06:15:06.253Z,796.00
2018-07-10T06:16:06.240Z,824.00
2018-07-10T06:17:06.142Z,872.00
2018-07-10T06:18:06.079Z,880.00
2018-07-10T06:19:06.034Z,824.00
2018-07-10T06:20:05.982Z,812.00
2018-07-10T06:21:05.962Z,896.00
2018-07-10T06:22:05.891Z,872.00
2018-07-10T06:23:05.845Z,952.00
2018-07-10T06:24:05.788Z,912.00
2018-07-10T06:25:05.740Z,908.00
2018-07-10T06:26:05.692Z,896.00
2018-07-10T06:27:05.665Z,864.00
2018-07-10T06:28:05.599Z,796.00
2018-07-10T06:29:05.550Z,744.00
2018-07-10T06:30:05.500Z,820.00
2018-07-10T06:31:05.457Z,928.00
2018-07-10T06:32:05.454Z,1048.00
2018-07-10T06:33:05.349Z,968.00
2018-07-10T06:34:05.302Z,956.00
2018-07-10T06:35:05.253Z,896.00
2018-07-10T06:36:05.206Z,956.00
2018-07-10T06:37:05.179Z,960.00
2018-07-10T06:38:05.109Z,964.00
2018-07-10T06:39:05.062Z,936.00
2018-07-10T06:40:05.011Z,844.00
2018-07-10T06:41:04.959Z,796.00
2018-07-10T06:42:04.937Z,832.00
2018-07-10T06:43:04.871Z,964.00
2018-07-10T06:44:04.820Z,1200.00
2018-07-10T06:45:04.769Z,1304.00
2018-07-10T06:46:04.717Z,1308.00
2018-07-10T06:47:04.696Z,1484.00
2018-07-10T06:48:04.621Z,1744.00
2018-07-10T06:49:04.570Z,2016.00
2018-07-10T06:50:04.523Z,2280.00
2018-07-10T06:51:04.476Z,2704.00
2018-07-10T06:52:04.451Z,2884.00
2018-07-10T06:53:04.476Z,2708.00
2018-07-10T06:54:04.342Z,2600.00
2018-07-10T06:55:04.288Z,2332.00
2018-07-10T06:56:04.248Z,2272.00
2018-07-10T06:57:04.226Z,2264.00
2018-07-10T06:58:04.143Z,1984.00
2018-07-10T06:59:04.086Z,1792.00
2018-07-10T07:00:04.038Z,1512.00
2018-07-10T07:01:03.993Z,1360.00
2018-07-10T07:02:03.972Z,1368.00
2018-07-10T07:03:03.890Z,1392.00
2018-07-10T07:04:03.886Z,1424.00
2018-07-10T07:05:03.813Z,1500.00
2018-07-10T07:06:03.783Z,1568.00
2018-07-10T07:07:03.724Z,1508.00
2018-07-10T07:08:03.714Z,1360.00
2018-07-10T07:09:03.601Z,1360.00
2018-07-10T07:10:03.561Z,1468.00
2018-07-10T07:11:03.508Z,1708.00
2018-07-10T07:12:03.493Z,2032.00
2018-07-10T07:13:03.410Z,2248.00
2018-07-10T07:14:03.436Z,2284.00
2018-07-10T07:15:03.330Z,2176.00
2018-07-10T07:16:03.269Z,2080.00
2018-07-10T07:17:03.238Z,1896.00
2018-07-10T07:18:03.187Z,1892.00
2018-07-10T07:19:03.129Z,2192.00
2018-07-10T07:20:03.068Z,2800.00
2018-07-10T07:21:03.027Z,2856.00
2018-07-10T07:22:03.005Z,2840.00
2018-07-10T07:23:02.929Z,2760.00
2018-07-10T07:24:02.880Z,2332.00
2018-07-10T07:25:02.858Z,1928.00
2018-07-10T07:26:02.782Z,1596.00
2018-07-10T07:27:02.741Z,1388.00
2018-07-10T07:28:02.714Z,1344.00
2018-07-10T07:29:02.638Z,1460.00
2018-07-10T07:30:02.590Z,1572.00
2018-07-10T07:31:02.542Z,1624.00
2018-07-10T07:32:02.491Z,1720.00
2018-07-10T07:33:02.469Z,1856.00
2018-07-10T07:34:02.403Z,2088.00
2018-07-10T07:35:02.427Z,2288.00
2018-07-10T07:36:02.300Z,2320.00
2018-07-10T07:37:02.260Z,2460.00
2018-07-10T07:38:02.234Z,2468.00
2018-07-10T07:39:02.155Z,2324.00
2018-07-10T07:40:02.108Z,2480.00
2018-07-10T07:41:02.061Z,2276.00
2018-07-10T07:42:02.014Z,2104.00
2018-07-10T07:43:01.988Z,1980.00
2018-07-10T07:44:02.119Z,1788.00
2018-07-10T07:45:01.867Z,1632.00
2018-07-10T07:46:01.819Z,1544.00
2018-07-10T07:47:01.775Z,1576.00
2018-07-10T07:48:01.748Z,1816.00
2018-07-10T07:49:01.675Z,1932.00
2018-07-10T07:50:01.626Z,2324.00
2018-07-10T07:51:01.573Z,2144.00
2018-07-10T07:52:01.530Z,1992.00
2018-07-10T07:53:01.521Z,2000.00
2018-07-10T07:54:01.435Z,1832.00
2018-07-10T07:55:01.387Z,1776.00
2018-07-10T07:56:01.338Z,1864.00
2018-07-10T07:57:01.286Z,1892.00
2018-07-10T07:58:01.261Z,1616.00
2018-07-10T07:59:01.198Z,1480.00
2018-07-10T08:00:01.141Z,1276.00
2018-07-10T08:01:01.091Z,1256.00
2018-07-10T08:02:01.045Z,1356.00
2018-07-10T08:03:01.021Z,1560.00
2018-07-10T08:04:00.995Z,1708.00
2018-07-10T08:05:00.951Z,1748.00
2018-07-10T08:06:00.854Z,2228.00
2018-07-10T08:07:00.801Z,2568.00
2018-07-10T08:08:00.780Z,2500.00
2018-07-10T08:09:00.707Z,2484.00
2018-07-10T08:10:00.660Z,2576.00
2018-07-10T08:11:00.624Z,2368.00
2018-07-10T08:12:00.564Z,2252.00
2018-07-10T08:13:00.554Z,2364.00
2018-07-10T08:14:00.469Z,2276.00
2018-07-10T08:15:00.414Z,2428.00
2018-07-10T08:16:00.374Z,2588.00
2018-07-10T08:17:00.320Z,2604.00
2018-07-10T08:18:00.297Z,2752.00
2018-07-10T08:19:00.226Z,2564.00
2018-07-10T08:20:00.177Z,2364.00
2018-07-10T08:21:00.133Z,2384.00
2018-07-10T08:22:00.083Z,2560.00
2018-07-10T08:23:00.068Z,2896.00
2018-07-10T08:23:59.983Z,3248.00
2018-07-10T08:24:59.936Z,3040.00
2018-07-10T08:25:59.893Z,2656.00
2018-07-10T08:26:59.840Z,2748.00
2018-07-10T08:27:59.817Z,2924.00
2018-07-10T08:28:59.744Z,2696.00
2018-07-10T08:29:59.695Z,2780.00
2018-07-10T08:30:59.659Z,4060.00
2018-07-10T08:31:59.594Z,3776.00
2018-07-10T08:32:59.573Z,3188.00
2018-07-10T08:33:59.583Z,1988.00
2018-07-10T08:34:59.451Z,1560.00
2018-07-10T08:35:59.405Z,1740.00
2018-07-10T08:36:59.356Z,1664.00
2018-07-10T08:37:59.332Z,1556.00
2018-07-10T08:38:59.258Z,1676.00
2018-07-10T08:39:59.211Z,1296.00
2018-07-10T08:40:59.159Z,1496.00
2018-07-10T08:41:59.115Z,1540.00
2018-07-10T08:42:59.108Z,1172.00
2018-07-10T08:43:59.015Z,1316.00
2018-07-10T08:44:58.967Z,1376.00
2018-07-10T08:45:58.928Z,1784.00
2018-07-10T08:46:58.873Z,1924.00
2018-07-10T08:47:58.829Z,1740.00
2018-07-10T08:48:58.800Z,1972.00
2018-07-10T08:49:58.725Z,2028.00
2018-07-10T08:50:58.678Z,1996.00
2018-07-10T08:51:58.631Z,1636.00
2018-07-10T08:52:58.580Z,1652.00
2018-07-10T08:53:58.553Z,2300.00
2018-07-10T08:54:58.481Z,1624.00
2018-07-10T08:55:58.434Z,1536.00
2018-07-10T08:56:58.387Z,1356.00
2018-07-10T08:57:58.335Z,1196.00
2018-07-10T08:58:58.313Z,1016.00
2018-07-10T08:59:58.240Z,1312.00
2018-07-10T09:00:58.197Z,1448.00
2018-07-10T09:01:58.143Z,1468.00
2018-07-10T09:02:58.143Z,1584.00
2018-07-10T09:03:58.072Z,1332.00
2018-07-10T09:04:58.001Z,1288.00
2018-07-10T09:05:57.947Z,1280.00
2018-07-10T09:06:57.900Z,1068.00
2018-07-10T09:07:57.905Z,964.00
2018-07-10T09:08:57.827Z,988.00
2018-07-10T09:09:57.755Z,992.00
2018-07-10T09:10:57.713Z,1260.00
2018-07-10T09:11:57.656Z,1128.00
2018-07-10T09:12:57.610Z,1524.00
2018-07-10T09:13:57.643Z,1452.00
2018-07-10T09:14:57.512Z,1596.00
2018-07-10T09:15:57.462Z,1564.00
2018-07-10T09:16:57.416Z,1220.00
2018-07-10T09:17:57.366Z,1568.00
2018-07-10T09:18:57.340Z,1232.00
2018-07-10T09:19:57.268Z,1372.00
2018-07-10T09:20:57.221Z,908.00
2018-07-10T09:21:57.172Z,1200.00
2018-07-10T09:22:57.123Z,992.00
2018-07-10T09:23:57.101Z,1164.00
2018-07-10T09:24:57.028Z,1052.00
2018-07-10T09:25:56.981Z,1020.00
2018-07-10T09:26:56.927Z,1012.00
2018-07-10T09:27:56.884Z,1284.00
2018-07-10T09:28:56.857Z,1344.00
2018-07-10T09:29:56.784Z,1220.00
2018-07-10T09:30:56.732Z,1580.00
2018-07-10T09:31:56.682Z,1368.00
2018-07-10T09:32:56.636Z,1368.00
2018-07-10T09:33:56.611Z,1248.00
2018-07-10T09:34:56.549Z,1272.00
2018-07-10T09:35:56.533Z,1240.00
2018-07-10T09:36:56.437Z,1160.00
2018-07-10T09:37:56.394Z,1072.00
2018-07-10T09:38:56.365Z,888.00
2018-07-10T09:39:56.351Z,804.00
2018-07-10T09:40:56.247Z,956.00
2018-07-10T09:41:56.197Z,980.00
2018-07-10T09:42:56.151Z,968.00
2018-07-10T09:43:56.150Z,1076.00
2018-07-10T09:44:56.050Z,1140.00
2018-07-10T09:45:56.003Z,1296.00
2018-07-10T09:46:56.019Z,1128.00
2018-07-10T09:47:55.903Z,1408.00
2018-07-10T09:48:55.880Z,1388.00
2018-07-10T09:49:55.809Z,1848.00
2018-07-10T09:50:55.758Z,1216.00
2018-07-10T09:51:55.710Z,1020.00
2018-07-10T09:52:55.659Z,1028.00
2018-07-10T09:53:55.633Z,1296.00
2018-07-10T09:54:55.707Z,1516.00
2018-07-10T09:55:55.519Z,1420.00
2018-07-10T09:56:55.469Z,1836.00
2018-07-10T09:57:55.421Z,1564.00
2018-07-10T09:58:55.394Z,1480.00
2018-07-10T09:59:55.323Z,1652.00
2018-07-10T10:00:55.272Z,1672.00
2018-07-10T10:01:55.291Z,2196.00
2018-07-10T10:02:55.180Z,2112.00
2018-07-10T10:03:55.153Z,2040.00
2018-07-10T10:04:55.079Z,2536.00
2018-07-10T10:05:55.033Z,2116.00
2018-07-10T10:06:54.983Z,1928.00
2018-07-10T10:07:54.938Z,1464.00
2018-07-10T10:08:54.908Z,1800.00
2018-07-10T10:09:54.862Z,1916.00
2018-07-10T10:10:54.788Z,2128.00
2018-07-10T10:11:54.741Z,1928.00
2018-07-10T10:12:54.692Z,1768.00
2018-07-10T10:13:54.645Z,1968.00
2018-07-10T10:14:54.613Z,1604.00
2018-07-10T10:15:54.547Z,1492.00
2018-07-10T10:16:54.495Z,1596.00
2018-07-10T10:17:54.447Z,1704.00
2018-07-10T10:18:54.399Z,1512.00
2018-07-10T10:19:54.377Z,2032.00
2018-07-10T10:20:54.301Z,2188.00
2018-07-10T10:21:54.252Z,1644.00
2018-07-10T10:22:54.207Z,1720.00
2018-07-10T10:23:54.157Z,1908.00
2018-07-10T10:24:54.141Z,2204.00
2018-07-10T10:25:54.143Z,2144.00
2018-07-10T10:26:54.009Z,2068.00
2018-07-10T10:27:53.958Z,2640.00
2018-07-10T10:28:53.909Z,2048.00
2018-07-10T10:29:53.890Z,1752.00
2018-07-10T10:30:53.817Z,1848.00
2018-07-10T10:31:53.772Z,1932.00
2018-07-10T10:32:53.717Z,2084.00
2018-07-10T10:33:53.667Z,1904.00
2018-07-10T10:34:53.642Z,1916.00
2018-07-10T10:35:53.574Z,1768.00
2018-07-10T10:36:53.522Z,2240.00
2018-07-10T10:37:53.475Z,2336.00
2018-07-10T10:38:53.428Z,2260.00
2018-07-10T10:39:53.403Z,2040.00
2018-07-10T10:40:53.332Z,1916.00
2018-07-10T10:41:53.302Z,2284.00
2018-07-10T10:42:53.232Z,2372.00
2018-07-10T10:43:53.184Z,2516.00
2018-07-10T10:44:53.157Z,2496.00
2018-07-10T10:45:53.089Z,2652.00
2018-07-10T10:46:53.039Z,2604.00
2018-07-10T10:47:52.989Z,2536.00
2018-07-10T10:48:52.942Z,2220.00
2018-07-10T10:49:52.931Z,2320.00
2018-07-10T10:50:52.845Z,2568.00
2018-07-10T10:51:52.797Z,2140.00
2018-07-10T10:52:52.749Z,2048.00
2018-07-10T10:53:52.700Z,1992.00
2018-07-10T10:54:52.738Z,2348.00
2018-07-10T10:55:52.606Z,1964.00
2018-07-10T10:56:52.557Z,1800.00
2018-07-10T10:57:52.507Z,1868.00
2018-07-10T10:58:52.458Z,1856.00
2018-07-10T10:59:52.435Z,1792.00
2018-07-10T11:00:52.364Z,1492.00
2018-07-10T11:01:52.316Z,1452.00
2018-07-10T11:02:52.264Z,1232.00
2018-07-10T11:03:52.213Z,1352.00
2018-07-10T11:04:52.188Z,1272.00
2018-07-10T11:05:52.119Z,1344.00
2018-07-10T11:06:52.074Z,1548.00
2018-07-10T11:07:52.027Z,1600.00
2018-07-10T11:08:51.972Z,1616.00
2018-07-10T11:09:51.952Z,1616.00
2018-07-10T11:10:51.877Z,1568.00
2018-07-10T11:11:51.830Z,1380.00
2018-07-10T11:12:51.777Z,1680.00
2018-07-10T11:13:51.731Z,2000.00
2018-07-10T11:14:51.708Z,2004.00
2018-07-10T11:15:51.637Z,2084.00
2018-07-10T11:16:51.589Z,2276.00
2018-07-10T11:17:51.542Z,2444.00
2018-07-10T11:18:51.492Z,2160.00
2018-07-10T11:19:51.479Z,2056.00
2018-07-10T11:20:51.392Z,2032.00
2018-07-10T11:21:51.354Z,1908.00
2018-07-10T11:22:51.297Z,1836.00
2018-07-10T11:23:51.245Z,1728.00
2018-07-10T11:24:51.212Z,2068.00
2018-07-10T11:25:51.177Z,1800.00
2018-07-10T11:26:51.106Z,1912.00
2018-07-10T11:27:51.055Z,2216.00
2018-07-10T11:28:51.004Z,2020.00
2018-07-10T11:29:50.959Z,2452.00
2018-07-10T11:30:50.937Z,2192.00
2018-07-10T11:31:50.863Z,2096.00
2018-07-10T11:32:50.810Z,2324.00
2018-07-10T11:33:50.762Z,2108.00
2018-07-10T11:34:50.720Z,2032.00
2018-07-10T11:35:50.694Z,1904.00
2018-07-10T11:36:50.617Z,1900.00
2018-07-10T11:37:50.571Z,1912.00
2018-07-10T11:38:50.521Z,1656.00
2018-07-10T11:39:50.477Z,1764.00
2018-07-10T11:40:50.455Z,1796.00
2018-07-10T11:41:50.376Z,1596.00
2018-07-10T11:42:50.330Z,1764.00
2018-07-10T11:43:50.280Z,1832.00
2018-07-10T11:44:50.232Z,1844.00
2018-07-10T11:45:50.263Z,1548.00
2018-07-10T11:46:50.150Z,1696.00
2018-07-10T11:47:50.090Z,1564.00
2018-07-10T11:48:50.040Z,1496.00
2018-07-10T11:49:49.991Z,1644.00
2018-07-10T11:50:49.965Z,1692.00
2018-07-10T11:51:49.915Z,1684.00
2018-07-10T11:52:49.846Z,1684.00
2018-07-10T11:53:49.796Z,1564.00
2018-07-10T11:54:49.747Z,1636.00
2018-07-10T11:55:49.727Z,1716.00
2018-07-10T11:56:49.647Z,1548.00
2018-07-10T11:57:49.605Z,1592.00
2018-07-10T11:58:49.555Z,1680.00
2018-07-10T11:59:49.508Z,1624.00
2018-07-10T12:00:49.480Z,1896.00
2018-07-10T12:01:49.420Z,2056.00
2018-07-10T12:02:49.360Z,2056.00
2018-07-10T12:03:49.317Z,2132.00
2018-07-10T12:04:49.279Z,2352.00
2018-07-10T12:05:49.239Z,2300.00
2018-07-10T12:06:49.167Z,2456.00
2018-07-10T12:07:49.124Z,2592.00
2018-07-10T12:08:49.074Z,2776.00
2018-07-10T12:09:49.023Z,2920.00
2018-07-10T12:10:49.006Z,2304.00
2018-07-10T12:11:48.929Z,2336.00
2018-07-10T12:12:48.898Z,2600.00
2018-07-10T12:13:50.719Z,2692.00
2018-07-10T12:14:48.784Z,2196.00
2018-07-10T12:15:48.735Z,1828.00
2018-07-10T12:16:48.711Z,1572.00
2018-07-10T12:17:48.642Z,1436.00
2018-07-10T12:18:48.590Z,1372.00
2018-07-10T12:19:48.541Z,1504.00
2018-07-10T12:20:48.510Z,1584.00
2018-07-10T12:21:48.471Z,1552.00
2018-07-10T12:22:48.425Z,1612.00
2018-07-10T12:23:48.352Z,2060.00
2018-07-10T12:24:48.304Z,1872.00
2018-07-10T12:25:48.253Z,2236.00
2018-07-10T12:26:48.229Z,1812.00
2018-07-10T12:27:48.167Z,1808.00
2018-07-10T12:28:48.111Z,1684.00